Latest Weather Observations for Laverton

IDW60801

Issued at 12:05 pm WST Monday 20 October 2014 (issued every 30 minutes, with the page automatically refreshed every 10 minutes)

About weather observations | Map of weather stations | Latest weather observations for WA | Other Formats
Station Details ID: 012305 Name: LAVERTON AERO Lat: -28.61 Lon: 122.42 Height: 464.3 m
Data from the previous 72 hours. | See also: Recent months at Laverton
Date/Time
WST
Temp
°C
App
Temp
°C
Dew
Point
Rel
Hum
%
Delta-T
°C
Wind Press
QNH
hPa
Press
MSL
hPa
Rain
since 9 am
mm
Dir
 
Spd
km/h
Gust
km/h
Spd
kts
Gust
kts
20/12:00pm 25.3 21.0 7.9 33 9.5 WNW 20 33 11 18 1016.8 1014.8 0.0
20/11:30am 25.1 19.9 7.3 32 9.6 WNW 24 37 13 20 1017.2 1015.3 0.0
20/11:00am 24.5 19.9 6.3 31 9.6 NW 20 28 11 15 1017.2 1015.3 0.0
20/10:30am 23.8 20.2 9.8 41 7.8 NW 19 28 10 15 1017.6 1015.7 0.0
20/10:00am 23.6 20.2 9.2 40 7.9 NW 17 24 9 13 1017.9 1016.0 0.0
20/09:30am 23.3 20.5 10.0 43 7.4 W 15 22 8 12 1018.0 1016.1 0.0
20/09:00am 22.8 20.5 8.9 41 7.6 NW 11 19 6 10 1018.4 1016.5 31.0
20/08:30am 22.2 20.8 11.0 49 6.3 NNW 9 15 5 8 1018.3 1016.4 31.0
20/08:00am 20.8 19.6 11.7 56 5.2 N 9 15 5 8 1018.0 1016.1 31.0
20/07:30am 19.2 19.1 14.0 72 3.0 NNW 7 11 4 6 1017.8 1015.9 31.0
20/07:00am 17.2 18.9 16.1 93 0.7 N 2 6 1 3 1017.5 1015.6 31.0
20/06:30am 15.4 15.8 15.4 100 0.0 N 7 9 4 5 1017.2 1015.3 31.0
20/06:00am 13.2 13.0 13.0 99 0.1 N 6 9 3 5 1017.0 1015.1 31.0
20/05:30am 11.7 12.2 11.5 99 0.1 CALM 0 0 0 0 1016.6 1014.6 31.0
20/05:00am 11.4 11.8 11.2 99 0.1 CALM 0 0 0 0 1016.3 1014.4 31.0
20/04:30am 11.8 12.3 11.6 99 0.1 CALM 0 0 0 0 1015.9 1014.0 31.0
20/04:00am 12.1 12.7 11.9 99 0.1 CALM 0 0 0 0 1015.6 1013.7 31.0
20/03:30am 12.6 13.0 12.4 99 0.1 N 2 7 1 4 1015.4 1013.5 31.0
20/03:00am 12.6 13.4 12.4 99 0.1 CALM 0 0 0 0 1015.3 1013.4 31.0
20/02:30am 12.4 13.1 12.2 99 0.1 CALM 0 0 0 0 1015.1 1013.2 31.0
20/02:00am 12.9 13.7 12.7 99 0.1 SW 0 0 0 0 1015.0 1013.0 31.0
20/01:30am 13.3 14.3 13.1 99 0.1 CALM 0 0 0 0 1015.0 1013.0 31.0
20/01:00am 13.8 14.9 13.5 98 0.2 CALM 0 0 0 0 1015.2 1013.3 31.0
20/12:30am 14.2 14.3 13.9 98 0.2 NE 6 9 3 5 1015.3 1013.4 31.0
20/12:00am 14.3 13.1 14.0 98 0.2 ENE 13 17 7 9 1015.6 1013.7 31.0
 
Date/Time
WST
Temp
°C
App
Temp
°C
Dew
Point
Rel
Hum
%
Delta-T
°C
Wind Press
QNH
hPa
Press
MSL
hPa
Rain
since 9 am
mm
Dir
 
Spd
km/h
Gust
km/h
Spd
kts
Gust
kts
19/11:30pm 14.2 15.4 13.9 98 0.2 CALM 0 0 0 0 1015.2 1013.3 31.0
19/11:00pm 14.9 16.3 14.3 96 0.3 CALM 0 0 0 0 1015.3 1013.4 31.0
19/10:30pm 15.8 16.6 13.8 88 1.2 S 2 6 1 3 1015.3 1013.4 31.0
19/10:00pm 16.7 16.8 13.8 83 1.7 SSW 6 9 3 5 1015.1 1013.2 31.0
19/09:30pm 17.4 16.1 13.7 79 2.1 SW 13 17 7 9 1015.0 1013.0 31.0
19/09:00pm 17.9 16.9 15.7 87 1.3 SW 15 19 8 10 1015.2 1013.3 31.0
19/08:30pm 18.0 16.1 17.7 98 0.2 WSW 24 37 13 20 1015.5 1013.6 31.0
19/08:00pm 17.9 17.4 16.9 94 0.6 NE 15 19 8 10 1015.0 1013.0 31.0
19/07:30pm 18.2 17.2 16.7 91 0.9 ENE 17 22 9 12 1015.3 1013.4 31.0
19/07:00pm 18.6 17.9 16.4 87 1.3 ENE 15 19 8 10 1014.4 1012.4 31.0
19/06:30pm 19.3 19.9 16.7 85 1.6 ESE 9 15 5 8 1013.7 1011.8 31.0
19/06:00pm 19.8 20.6 17.4 86 1.5 ESE 9 13 5 7 1013.4 1011.5 31.0
19/05:30pm 19.6 20.7 17.2 86 1.5 S 7 11 4 6 1013.3 1011.4 31.0
19/05:00pm 19.5 20.4 17.5 88 1.2 S 9 13 5 7 1012.8 1010.8 31.0
19/04:30pm 19.3 19.3 17.1 87 1.4 SSE 13 17 7 9 1012.5 1010.5 31.0
19/04:00pm 19.3 19.1 17.6 90 1.1 SSE 15 20 8 11 1012.6 1010.6 31.0
19/03:30pm 19.5 19.8 19.5 100 0.0 SSE 17 20 9 11 1012.6 1010.6 31.0
19/03:00pm 18.8 18.7 18.8 100 0.0 SSE 17 22 9 12 1012.8 1010.8 31.0
19/02:30pm 18.8 19.9 18.8 100 0.0 SW 11 15 6 8 1013.0 1011.0 31.0
19/02:00pm 18.2 17.9 18.2 100 0.0 SE 17 24 9 13 1012.8 1010.8 31.0
19/01:30pm 16.4 14.0 16.4 100 0.0 SE 24 37 13 20 1013.2 1011.3 31.0
19/01:19pm 16.2 12.2 16.2 100 0.0 SE 32 35 17 19 1013.1 1011.1 30.8
19/01:00pm 15.9 16.5 15.9 100 0.0 N 7 15 4 8 1014.8 1012.8 29.4
19/12:50pm 15.9 13.7 15.9 100 0.0 SW 22 28 12 15 1015.3 1013.4 24.8
19/12:30pm 15.9 12.5 15.9 100 0.0 S 28 39 15 21 1013.1 1011.1 22.0
19/12:09pm 15.7 10.9 15.7 100 0.0 SSW 35 41 19 22 1013.6 1011.7 22.0
19/12:00pm 16.6 10.7 16.6 100 0.0 SW 43 65 23 35 1014.3 1012.3 22.0
19/11:50am 13.9 6.9 13.7 99 0.1 SW 43 69 23 37 1014.5 1012.5 17.6
19/11:48am 13.5 0.9 13.3 99 0.1 WSW 72 95 39 51 1014.4 1012.4 14.2
19/11:45am 15.9 4.0 13.9 88 1.2 W 69 93 37 50 1014.3 1012.3 2.2
19/11:42am 20.7 13.4 14.4 67 3.8 NNW 46 82 25 44 1013.8 1011.9 0.0
19/11:41am 22.7 18.6 14.8 61 4.8 N 30 41 16 22 1013.2 1011.3 0.0
19/11:33am 22.6 17.1 14.7 61 4.8 E 37 57 20 31 1010.7 1008.7 0.0
19/11:30am 22.6 17.5 14.7 61 4.8 E 35 48 19 26 1011.5 1009.6 0.0
19/11:21am 22.7 17.6 14.8 61 4.8 E 35 43 19 23 1013.0 1011.0 0.0
19/11:00am 23.1 22.5 15.7 63 4.5 ENE 13 20 7 11 1014.2 1012.2 0.0
19/10:30am 23.2 19.0 14.7 58 5.1 NE 30 41 16 22 1014.7 1012.7 0.0
19/10:00am 23.6 20.4 15.4 60 5.0 ENE 26 35 14 19 1014.4 1012.4 0.0
19/09:30am 22.3 20.4 15.2 64 4.3 NE 19 24 10 13 1015.0 1013.0 0.0
19/09:00am 20.9 18.7 15.0 69 3.5 ENE 20 26 11 14 1015.3 1013.4 4.8
19/08:30am 20.8 19.1 15.8 73 3.0 ENE 19 20 10 11 1015.7 1013.8 4.8
19/08:00am 20.1 19.7 16.1 78 2.4 E 13 17 7 9 1015.4 1013.5 4.8
19/07:30am 18.9 18.3 15.6 81 2.0 E 13 17 7 9 1015.5 1013.6 4.8
19/07:00am 18.2 17.8 16.2 88 1.2 E 13 17 7 9 1015.2 1013.3 4.8
19/06:30am 17.4 16.6 17.1 98 0.2 E 17 22 9 12 1015.1 1013.2 4.8
19/06:00am 16.6 16.3 16.4 99 0.1 SE 13 17 7 9 1015.3 1013.4 4.8
19/05:30am 16.6 15.9 16.3 98 0.2 SE 15 17 8 9 1014.9 1012.9 4.8
19/05:00am 16.6 16.2 16.3 98 0.2 SE 13 17 7 9 1015.2 1013.3 4.8
19/04:30am 16.9 17.9 16.3 96 0.4 N 6 15 3 8 1016.0 1014.1 2.8
19/04:00am 17.0 15.3 14.8 87 1.3 NE 17 24 9 13 1014.3 1012.3 2.8
19/03:30am 17.3 16.7 14.6 84 1.6 NNE 11 13 6 7 1013.7 1011.8 2.2
19/03:00am 17.4 15.6 14.5 83 1.7 NE 17 26 9 14 1014.0 1012.1 2.2
19/02:30am 18.0 17.5 13.9 77 2.4 N 9 13 5 7 1014.2 1012.2 1.8
19/02:00am 19.3 18.8 12.6 65 3.8 NW 7 15 4 8 1013.7 1011.8 1.6
19/01:30am 18.9 16.1 13.1 69 3.3 W 20 26 11 14 1013.3 1011.4 1.6
19/01:00am 18.4 16.9 14.3 77 2.4 W 15 28 8 15 1014.5 1012.5 1.6
19/12:30am 18.3 16.9 14.6 79 2.2 WNW 15 22 8 12 1015.3 1013.4 1.6
19/12:00am 18.1 15.8 14.6 80 2.1 WNW 20 32 11 17 1014.8 1012.8 1.6
 
Date/Time
WST
Temp
°C
App
Temp
°C
Dew
Point
Rel
Hum
%
Delta-T
°C
Wind Press
QNH
hPa
Press
MSL
hPa
Rain
since 9 am
mm
Dir
 
Spd
km/h
Gust
km/h
Spd
kts
Gust
kts
18/11:30pm 17.9 13.4 15.0 83 1.7 W 32 44 17 24 1014.4 1012.4 1.6
18/11:00pm 17.6 12.6 15.0 85 1.5 W 35 44 19 24 1014.3 1012.3 1.6
18/10:35pm 17.6 11.4 14.9 84 1.6 WNW 41 59 22 32 1015.9 1014.0 1.4
18/10:30pm 17.7 11.2 15.1 85 1.5 WNW 43 59 23 32 1016.5 1014.5 1.4
18/10:25pm 18.2 11.0 14.7 80 2.1 WNW 46 57 25 31 1016.1 1014.2 1.4
18/10:21pm 19.3 13.4 14.6 74 2.8 NNW 39 50 21 27 1016.3 1014.4 1.4
18/10:00pm 18.1 9.7 15.5 85 1.6 W 54 78 29 42 1015.0 1013.0 1.4
18/09:43pm 18.7 11.7 15.4 81 2.0 WNW 46 78 25 42 1015.9 1014.0 1.2
18/09:31pm 18.6 14.0 15.1 80 2.1 WNW 33 54 18 29 1016.0 1014.1 1.2
18/09:30pm 18.6 14.3 15.3 81 2.0 WNW 32 46 17 25 1016.1 1014.2 1.2
18/09:06pm 20.2 15.2 14.1 68 3.6 NNW 33 57 18 31 1015.7 1013.8 1.2
18/09:05pm 19.2 15.3 14.5 74 2.8 NNW 28 39 15 21 1015.7 1013.8 1.2
18/09:00pm 19.0 18.7 14.5 75 2.7 S 9 17 5 9 1013.3 1011.4 1.2
18/08:30pm 18.6 14.7 14.5 77 2.4 W 28 43 15 23 1014.6 1012.6 1.2
18/08:22pm 18.4 14.3 14.9 80 2.1 W 30 44 16 24 1013.8 1011.9 1.2
18/08:00pm 18.9 14.5 15.6 81 2.0 W 33 54 18 29 1016.0 1014.1 1.0
18/07:48pm 20.4 16.9 15.4 73 3.0 WSW 28 46 15 25 1016.5 1014.5 0.4
18/07:30pm 21.5 17.2 14.4 64 4.2 WSW 30 43 16 23 1015.3 1013.4 0.4
18/07:29pm 21.6 17.0 14.5 64 4.2 WSW 32 43 17 23 1015.3 1013.4 0.4
18/07:00pm 21.0 19.3 14.6 67 3.8 S 17 22 9 12 1013.8 1011.9 0.4
18/06:30pm 21.5 19.7 14.4 64 4.2 S 17 22 9 12 1013.9 1012.0 0.4
18/06:00pm 21.9 18.9 14.8 64 4.3 SSW 24 35 13 19 1013.6 1011.7 0.4
18/05:37pm 24.5 20.7 14.6 54 6.0 SW 28 52 15 28 1013.0 1011.0 0.4
18/05:30pm 26.9 27.6 15.6 50 7.0 WNW 6 13 3 7 1012.6 1010.6 0.4
18/05:00pm 28.2 27.0 11.7 36 9.7 N 9 13 5 7 1012.3 1010.3 0.4
18/04:30pm 28.6 25.8 11.2 34 10.2 N 17 24 9 13 1012.1 1010.1 0.4
18/04:00pm 28.9 25.3 10.6 32 10.6 N 20 28 11 15 1011.7 1009.8 0.4
18/03:30pm 28.9 23.8 10.6 32 10.6 N 28 37 15 20 1011.7 1009.8 0.4
18/03:00pm 29.2 23.3 10.3 31 10.9 NNE 32 43 17 23 1011.8 1009.9 0.4
18/02:30pm 29.7 26.0 12.6 35 10.3 N 24 37 13 20 1011.6 1009.7 0.4
18/02:00pm 28.8 26.9 14.2 40 9.0 N 17 26 9 14 1012.3 1010.3 0.4
18/01:30pm 26.2 23.9 14.6 48 7.1 N 20 28 11 15 1013.2 1011.3 0.4
18/01:00pm 24.7 22.2 14.2 52 6.3 N 20 26 11 14 1014.2 1012.2 0.4
18/12:30pm 24.0 22.8 14.1 54 5.9 NNW 13 17 7 9 1015.1 1013.2 0.4
18/12:00pm 24.1 22.3 13.3 51 6.4 N 15 20 8 11 1014.7 1012.7 0.4
18/11:30am 23.1 21.7 13.3 54 5.8 NNW 13 17 7 9 1015.0 1013.0 0.4
18/11:00am 22.4 20.1 12.9 55 5.6 NW 17 28 9 15 1015.4 1013.5 0.4
18/10:30am 23.4 20.5 12.4 50 6.4 NNW 19 33 10 18 1015.4 1013.5 0.4
18/10:00am 19.6 14.9 14.2 71 3.2 N 32 52 17 28 1017.0 1015.1 0.2
18/09:30am 22.8 16.8 12.1 51 6.2 N 35 63 19 34 1016.6 1014.6 0.0
18/09:28am 23.6 18.1 12.0 48 6.7 N 32 61 17 33 1016.5 1014.5 0.0
18/09:00am 23.9 20.7 13.2 51 6.3 NNE 22 32 12 17 1015.5 1013.6 10.0
18/08:30am 21.2 20.7 16.0 72 3.2 ENE 13 17 7 9 1015.6 1013.7 10.0
18/08:00am 20.4 19.3 15.4 73 3.0 E 15 17 8 9 1016.0 1014.1 10.0
18/07:30am 19.2 19.4 15.7 80 2.1 ENE 9 11 5 6 1016.6 1014.6 10.0
18/07:00am 18.2 17.7 16.0 87 1.3 ENE 13 17 7 9 1017.0 1015.1 10.0
18/06:30am 17.9 17.6 15.5 86 1.4 N 11 15 6 8 1017.3 1015.4 10.0
18/06:00am 18.6 16.5 14.7 78 2.3 NNW 19 26 10 14 1017.4 1015.5 9.8
18/05:30am 18.0 16.4 15.1 83 1.7 N 17 22 9 12 1016.6 1014.6 9.8
18/05:00am 17.3 16.3 15.5 89 1.1 NNE 15 19 8 10 1016.2 1014.3 9.8
18/04:30am 17.8 14.5 15.1 84 1.6 NNW 26 37 14 20 1017.2 1015.3 9.6
18/04:00am 18.2 13.4 14.7 80 2.1 NNW 33 48 18 26 1017.1 1015.2 9.2
18/03:30am 19.2 14.3 13.8 71 3.2 NNW 32 50 17 27 1017.0 1015.1 9.2
18/03:24am 19.4 15.3 13.8 70 3.3 NNW 28 46 15 25 1017.2 1015.3 9.2
18/03:00am 19.2 15.8 13.8 71 3.2 NNW 24 37 13 20 1017.2 1015.3 9.0
18/02:51am 18.9 16.4 14.0 73 2.9 NNW 20 26 11 14 1016.5 1014.5 9.0
18/02:47am 19.1 13.2 13.7 71 3.2 N 37 56 20 30 1016.3 1014.4 9.0
18/02:30am 18.8 12.9 13.6 72 3.0 N 37 50 20 27 1016.2 1014.3 9.0
18/02:00am 18.0 13.3 14.3 79 2.2 N 32 50 17 27 1016.6 1014.6 8.8
18/01:54am 17.6 13.7 14.3 81 1.9 N 28 46 15 25 1016.5 1014.5 8.6
18/01:30am 17.3 13.5 14.8 85 1.5 N 28 37 15 20 1017.4 1015.5 8.0
18/01:00am 16.7 18.5 16.4 98 0.2 NNW 2 7 1 4 1017.7 1015.8 7.4
18/12:30am 16.6 16.6 16.3 98 0.2 N 11 15 6 8 1018.1 1016.2 7.0
18/12:00am 16.7 17.7 16.4 98 0.2 WSW 6 7 3 4 1018.6 1016.7 6.2
 
Date/Time
WST
Temp
°C
App
Temp
°C
Dew
Point
Rel
Hum
%
Delta-T
°C
Wind Press
QNH
hPa
Press
MSL
hPa
Rain
since 9 am
mm
Dir
 
Spd
km/h
Gust
km/h
Spd
kts
Gust
kts
17/11:30pm 16.5 16.9 16.2 98 0.2 W 9 15 5 8 1019.7 1017.8 5.8
17/11:00pm 16.9 14.6 16.6 98 0.2 NW 24 33 13 18 1020.9 1019.1 4.8
17/10:30pm 17.0 14.7 16.7 98 0.2 NW 24 32 13 17 1020.9 1019.1 4.0
17/10:00pm 17.4 13.4 16.3 93 0.7 NW 32 41 17 22 1020.5 1018.6 3.4
17/09:30pm 18.1 13.9 15.7 86 1.4 WNW 32 46 17 25 1019.7 1017.8 2.6
17/09:00pm 20.3 16.1 14.7 70 3.3 NNW 30 44 16 24 1019.5 1017.6 2.4
17/08:30pm 21.4 19.0 15.5 69 3.6 N 22 33 12 18 1018.4 1016.5 2.4
17/08:00pm 21.5 19.6 15.8 70 3.5 N 20 26 11 14 1017.6 1015.7 2.2
17/07:30pm 21.7 21.2 15.8 69 3.6 NE 13 17 7 9 1016.1 1014.2 2.2
17/07:00pm 21.4 21.3 17.0 76 2.7 ENE 13 17 7 9 1015.9 1014.0 2.2
17/06:30pm 21.4 24.0 17.4 78 2.5 CALM 0 0 0 0 1016.3 1014.4 2.2
17/06:00pm 22.7 24.8 17.2 71 3.5 SSW 2 6 1 3 1016.1 1014.2 2.2
17/05:30pm 23.2 25.2 16.0 64 4.4 CALM 0 0 0 0 1016.6 1014.6 2.2
17/05:00pm 23.6 24.7 15.6 61 4.9 NNW 4 7 2 4 1016.6 1014.6 2.2
17/04:30pm 23.4 24.1 15.5 61 4.8 N 6 9 3 5 1016.3 1014.4 2.2
17/04:00pm 22.9 23.5 15.2 62 4.7 WNW 6 9 3 5 1016.5 1014.5 2.2
17/03:30pm 22.7 22.9 15.8 65 4.2 W 9 15 5 8 1016.1 1014.2 2.2
17/03:00pm 23.1 23.4 14.9 60 5.0 NW 7 11 4 6 1016.3 1014.4 2.2
17/02:30pm 23.6 22.6 14.6 57 5.4 NW 13 17 7 9 1016.5 1014.5 2.2
17/02:00pm 23.0 22.2 14.0 57 5.4 N 11 15 6 8 1016.6 1014.6 2.2
17/01:30pm 22.3 20.0 13.1 56 5.4 NE 17 22 9 12 1016.5 1014.5 2.2
17/01:00pm 20.8 14.4 13.3 62 4.4 NNE 39 52 21 28 1016.0 1014.1 2.2
17/12:38pm 20.8 16.0 14.5 67 3.8 N 33 54 18 29 1017.3 1015.4 2.0
17/12:30pm 20.9 17.2 15.0 69 3.6 NNE 28 41 15 22 1017.7 1015.8 2.0

Other Formats:

Comma delimited format used in spreadsheet applications
http://www.bom.gov.au/fwo/IDW60801/IDW60801.94449.axf

JavaScript Object Notation format (JSON) in row-major order
http://www.bom.gov.au/fwo/IDW60801/IDW60801.94449.json